Time;durP1;ratioP1;P1;durP2;ratioP2;P2;SDS_P1;SDS_P2;PMS_P1;PMS_P2;Temp;Humidity;BMP_temperature;BMP_pressure;BME280_temperature;BME280_humidity;BME280_pressure;Samples;Min_cycle;Max_cycle;Signal;HPM_P1;HPM_P2
2023/06/09 00:01:58;;;;;;;0.10;0.10;;;12.10;99.90;;;;;;5008237;28;20375;-75
2023/06/09 00:04:26;;;;;;;0.10;0.10;;;12.10;99.90;;;;;;5012199;28;20485;-75
2023/06/09 00:06:52;;;;;;;0.03;0.03;;;12.00;99.90;;;;;;5011957;28;20069;-75
2023/06/09 00:09:20;;;;;;;0.00;0.00;;;12.00;99.90;;;;;;5011084;28;20261;-74
2023/06/09 00:11:47;;;;;;;0.00;0.00;;;12.00;99.90;;;;;;5010056;28;20034;-76
2023/06/09 00:14:13;;;;;;;1.63;0.43;;;12.10;99.90;;;;;;5010779;28;20045;-75
2023/06/09 00:16:39;;;;;;;0.03;0.03;;;12.10;99.90;;;;;;5011399;28;20034;-76
2023/06/09 00:19:09;;;;;;;0.25;0.20;;;12.10;99.90;;;;;;4992795;28;20036;-76
2023/06/09 00:21:37;;;;;;;0.00;0.00;;;12.10;99.90;;;;;;5008585;28;20045;-74
2023/06/09 00:24:03;;;;;;;0.40;0.40;;;12.10;99.90;;;;;;4993814;28;20050;-75
2023/06/09 00:26:29;;;;;;;0.17;0.15;;;12.10;99.90;;;;;;5012165;28;20489;-75
2023/06/09 00:28:55;;;;;;;0.00;0.00;;;12.10;99.90;;;;;;5009384;28;20034;-75
2023/06/09 00:31:21;;;;;;;0.00;0.00;;;12.10;99.90;;;;;;5011240;28;20042;-75
2023/06/09 00:33:46;;;;;;;0.00;0.00;;;12.10;99.90;;;;;;5006671;28;20041;-75
2023/06/09 00:36:12;;;;;;;1.08;0.52;;;12.10;99.90;;;;;;5010708;28;20386;-75
2023/06/09 00:38:38;;;;;;;0.00;0.00;;;12.10;99.90;;;;;;5008527;28;20041;-75
2023/06/09 00:41:03;;;;;;;7.30;0.98;;;12.10;99.90;;;;;;5007790;28;20121;-75
2023/06/09 00:43:29;;;;;;;0.00;0.00;;;12.10;99.90;;;;;;5009357;28;20121;-75
2023/06/09 00:45:55;;;;;;;9.98;0.50;;;12.10;99.90;;;;;;5010319;28;20041;-75
2023/06/09 00:48:21;;;;;;;0.32;0.03;;;12.10;99.90;;;;;;5006120;28;20394;-75
2023/06/09 00:50:47;;;;;;;0.00;0.00;;;12.10;99.90;;;;;;5009293;28;20049;-75
2023/06/09 00:53:15;;;;;;;3.22;0.68;;;12.10;99.90;;;;;;5007886;28;20045;-75
2023/06/09 00:55:41;;;;;;;0.08;0.08;;;12.10;99.90;;;;;;5006986;28;20117;-76
2023/06/09 00:58:08;;;;;;;0.32;0.13;;;12.10;99.90;;;;;;5008213;28;20052;-74
2023/06/09 01:00:35;;;;;;;0.75;0.45;;;12.10;99.90;;;;;;5007092;28;20117;-72
2023/06/09 01:03:02;;;;;;;0.08;0.05;;;12.10;99.90;;;;;;5008973;28;20498;-71
2023/06/09 01:05:30;;;;;;;0.13;0.13;;;12.10;99.90;;;;;;5006488;28;20537;-72
2023/06/09 01:08:05;;;;;;;0.47;0.45;;;12.10;99.90;;;;;;5008245;28;20114;-71
2023/06/09 01:10:53;;;;;;;0.13;0.13;;;12.10;99.90;;;;;;5007765;28;20140;-71
2023/06/09 01:13:31;;;;;;;0.22;0.20;;;12.10;99.90;;;;;;5005148;28;20104;-71
2023/06/09 01:16:03;;;;;;;1.15;0.40;;;12.10;99.90;;;;;;5009175;28;20107;-71
2023/06/09 01:18:30;;;;;;;0.00;0.00;;;12.10;99.90;;;;;;5009119;28;20474;-71
2023/06/09 01:21:14;;;;;;;0.20;0.20;;;12.10;99.90;;;;;;5011485;28;20041;-71
2023/06/09 01:23:52;;;;;;;0.00;0.00;;;12.00;99.90;;;;;;5007084;28;20042;-71
2023/06/09 01:26:19;;;;;;;0.17;0.17;;;12.00;99.90;;;;;;5012176;28;20099;-71
2023/06/09 01:28:47;;;;;;;0.15;0.15;;;12.00;99.90;;;;;;5011112;28;20125;-71
2023/06/09 01:31:15;;;;;;;0.00;0.00;;;12.00;99.90;;;;;;5011544;28;20391;-71
2023/06/09 01:33:42;;;;;;;1.27;0.30;;;12.00;99.90;;;;;;5011035;28;20469;-71
2023/06/09 01:36:09;;;;;;;0.10;0.10;;;11.90;99.90;;;;;;5010223;28;20057;-75
2023/06/09 01:38:35;;;;;;;0.00;0.00;;;11.90;99.90;;;;;;5006702;28;20041;-75
2023/06/09 01:41:01;;;;;;;0.30;0.13;;;11.90;99.90;;;;;;5012073;28;20041;-77
2023/06/09 01:43:26;;;;;;;1.65;0.57;;;11.90;99.90;;;;;;5008757;28;20128;-76
2023/06/09 01:45:52;;;;;;;0.00;0.00;;;11.90;99.90;;;;;;5010433;28;20501;-76
2023/06/09 01:48:18;;;;;;;0.00;0.00;;;11.80;99.90;;;;;;5010226;28;20057;-75
2023/06/09 01:50:55;;;;;;;1.30;0.98;;;11.80;99.90;;;;;;5010822;28;20378;-76
2023/06/09 01:53:38;;;;;;;0.50;0.30;;;11.80;99.90;;;;;;5008898;28;20042;-75
2023/06/09 01:56:27;;;;;;;0.98;0.77;;;11.80;99.90;;;;;;5009701;28;20473;-76
2023/06/09 01:59:04;;;;;;;0.17;0.10;;;11.70;99.90;;;;;;5007509;28;20049;-75
2023/06/09 02:01:32;;;;;;;0.00;0.00;;;11.70;99.90;;;;;;5010932;28;20045;-75
2023/06/09 02:04:00;;;;;;;1.48;1.05;;;11.70;99.90;;;;;;5007226;28;20069;-75
2023/06/09 02:06:26;;;;;;;0.15;0.15;;;11.60;99.90;;;;;;5008767;28;20129;-76
2023/06/09 02:08:52;;;;;;;0.10;0.10;;;11.60;99.90;;;;;;5010358;28;20437;-76
2023/06/09 02:11:18;;;;;;;1.35;0.38;;;11.60;99.90;;;;;;5009424;28;20038;-75
2023/06/09 02:13:52;;;;;;;0.10;0.08;;;11.60;99.90;;;;;;4994367;28;20555;-76
2023/06/09 02:16:18;;;;;;;0.00;0.00;;;11.50;99.90;;;;;;4988976;28;20049;-75
2023/06/09 02:18:44;;;;;;;0.03;0.03;;;11.50;99.90;;;;;;5009574;28;20041;-76
2023/06/09 02:21:10;;;;;;;0.55;0.32;;;11.50;99.90;;;;;;5010678;28;20723;-76
2023/06/09 02:23:39;;;;;;;0.47;0.17;;;11.50;99.90;;;;;;5009992;28;20037;-76
2023/06/09 02:26:06;;;;;;;1.00;0.57;;;11.50;99.90;;;;;;5011088;28;20045;-76
2023/06/09 02:28:32;;;;;;;0.40;0.20;;;11.50;99.90;;;;;;5006919;28;20120;-73
2023/06/09 02:30:58;;;;;;;1.15;0.70;;;11.50;99.90;;;;;;5008243;28;20095;-75
2023/06/09 02:33:25;;;;;;;1.02;0.38;;;11.40;99.90;;;;;;5008283;28;20489;-77
2023/06/09 02:35:52;;;;;;;0.05;0.05;;;11.40;99.90;;;;;;5010448;28;20502;-75
2023/06/09 02:38:18;;;;;;;0.20;0.20;;;11.40;99.90;;;;;;5010066;28;20045;-75
2023/06/09 02:40:47;;;;;;;0.15;0.15;;;11.40;99.90;;;;;;5008653;28;20053;-74
2023/06/09 02:43:13;;;;;;;0.08;0.08;;;11.30;99.90;;;;;;5009888;28;20133;-76
2023/06/09 02:45:39;;;;;;;0.63;0.63;;;11.30;99.90;;;;;;5005813;28;20180;-74
2023/06/09 02:48:05;;;;;;;0.38;0.38;;;11.30;99.90;;;;;;5009306;28;20406;-74
2023/06/09 02:50:31;;;;;;;0.32;0.32;;;11.30;99.90;;;;;;5006126;28;20052;-74
2023/06/09 02:52:56;;;;;;;1.17;1.08;;;11.30;99.90;;;;;;5010858;28;20041;-74
2023/06/09 02:55:22;;;;;;;0.10;0.05;;;11.20;99.90;;;;;;5005920;28;20438;-74
2023/06/09 02:57:48;;;;;;;0.00;0.00;;;11.20;99.90;;;;;;5007279;28;20490;-74
2023/06/09 03:00:15;;;;;;;0.52;0.43;;;11.20;99.90;;;;;;5008892;28;20077;-75
2023/06/09 03:02:42;;;;;;;0.00;0.00;;;11.20;99.90;;;;;;5007405;28;20332;-75
2023/06/09 03:05:09;;;;;;;0.22;0.22;;;11.20;99.90;;;;;;5011645;28;20041;-74
2023/06/09 03:07:36;;;;;;;0.10;0.10;;;11.20;99.90;;;;;;5015243;28;20033;-74
2023/06/09 03:10:02;;;;;;;0.10;0.10;;;11.20;99.90;;;;;;5011923;28;20054;-73
2023/06/09 03:12:28;;;;;;;0.08;0.08;;;11.20;99.90;;;;;;5011324;28;20250;-74
2023/06/09 03:14:53;;;;;;;0.00;0.00;;;11.20;99.90;;;;;;5012465;28;20129;-74
2023/06/09 03:17:19;;;;;;;0.57;0.43;;;11.20;99.90;;;;;;4996633;28;20049;-74
2023/06/09 03:19:45;;;;;;;1.17;0.77;;;11.20;99.90;;;;;;5011423;28;20477;-74
2023/06/09 03:22:11;;;;;;;0.30;0.28;;;11.10;99.90;;;;;;5014588;28;20073;-74
2023/06/09 03:24:37;;;;;;;0.10;0.10;;;11.10;99.90;;;;;;5024852;28;20045;-74
2023/06/09 03:27:03;;;;;;;0.00;0.00;;;11.10;99.90;;;;;;5012298;28;20046;-75
2023/06/09 03:29:28;;;;;;;0.30;0.28;;;11.10;99.90;;;;;;5011005;28;20480;-74
2023/06/09 03:31:55;;;;;;;0.25;0.25;;;11.20;99.90;;;;;;4997933;28;20486;-74
2023/06/09 03:34:21;;;;;;;0.30;0.15;;;11.10;99.90;;;;;;5013341;28;20033;-74
2023/06/09 03:36:46;;;;;;;0.10;0.10;;;11.20;99.90;;;;;;4997772;28;20051;-74
2023/06/09 03:39:12;;;;;;;2.20;0.20;;;11.20;99.90;;;;;;5011871;28;20317;-74
2023/06/09 03:41:38;;;;;;;0.00;0.00;;;11.20;99.90;;;;;;5013051;28;20045;-75
2023/06/09 03:44:04;;;;;;;0.20;0.20;;;11.20;99.90;;;;;;5013682;28;20041;-75
2023/06/09 03:46:30;;;;;;;0.08;0.08;;;11.20;99.90;;;;;;5013190;28;20037;-74
2023/06/09 03:48:56;;;;;;;0.55;0.52;;;11.20;99.90;;;;;;5013025;28;20100;-75
2023/06/09 03:51:21;;;;;;;0.10;0.10;;;11.20;99.90;;;;;;5011512;28;20061;-75
2023/06/09 03:53:47;;;;;;;0.30;0.15;;;11.20;99.90;;;;;;5011093;28;20482;-74
2023/06/09 03:56:13;;;;;;;0.82;0.57;;;11.20;99.90;;;;;;5012707;28;20049;-76
2023/06/09 03:58:39;;;;;;;0.38;0.32;;;11.20;99.90;;;;;;5014063;28;20037;-75
2023/06/09 04:01:10;;;;;;;0.03;0.03;;;11.30;99.90;;;;;;4997867;28;20041;-76
2023/06/09 04:03:37;;;;;;;0.10;0.10;;;11.30;99.90;;;;;;5012890;28;20041;-75
2023/06/09 04:06:03;;;;;;;0.98;0.65;;;11.30;99.90;;;;;;5010203;28;20457;-75
2023/06/09 04:08:29;;;;;;;0.00;0.00;;;11.30;99.90;;;;;;4997042;28;20048;-76
2023/06/09 04:10:55;;;;;;;1.50;0.65;;;11.40;99.90;;;;;;5010419;28;20052;-75
2023/06/09 04:13:21;;;;;;;0.00;0.00;;;11.40;99.90;;;;;;5012092;28;20049;-76
2023/06/09 04:15:46;;;;;;;0.00;0.00;;;11.40;99.90;;;;;;5012151;28;20438;-76
2023/06/09 04:18:12;;;;;;;0.13;0.13;;;11.50;99.90;;;;;;5011721;28;20450;-72
2023/06/09 04:20:38;;;;;;;1.10;0.43;;;11.50;99.90;;;;;;5008496;28;20042;-73
2023/06/09 04:23:05;;;;;;;0.20;0.20;;;11.60;99.90;;;;;;5010378;28;20087;-73
2023/06/09 04:25:34;;;;;;;1.67;0.25;;;11.60;99.90;;;;;;4995837;28;20064;-73
2023/06/09 04:28:02;;;;;;;0.10;0.10;;;11.60;99.90;;;;;;5012725;28;20041;-73
2023/06/09 04:30:29;;;;;;;1.23;0.65;;;11.70;99.90;;;;;;5012544;28;20079;-75
2023/06/09 04:32:58;;;;;;;0.10;0.10;;;11.80;99.90;;;;;;5012935;28;20081;-73
2023/06/09 04:35:24;;;;;;;1.08;0.20;;;11.80;99.90;;;;;;5010781;28;20108;-74
2023/06/09 04:37:50;;;;;;;0.00;0.00;;;11.90;99.90;;;;;;5013190;28;20121;-74
2023/06/09 04:40:23;;;;;;;0.22;0.22;;;12.00;99.90;;;;;;5012492;28;20052;-73
2023/06/09 04:42:55;;;;;;;0.70;0.22;;;12.10;99.90;;;;;;5012024;28;20045;-73
2023/06/09 04:45:27;;;;;;;0.45;0.22;;;12.10;99.90;;;;;;5025339;28;20120;-73
2023/06/09 04:47:57;;;;;;;0.45;0.45;;;12.20;99.90;;;;;;5010639;28;20065;-73
2023/06/09 04:50:24;;;;;;;0.68;0.63;;;12.30;99.90;;;;;;5011360;28;20057;-73
2023/06/09 04:52:50;;;;;;;0.30;0.30;;;12.30;99.90;;;;;;5010043;28;20477;-73
2023/06/09 04:55:17;;;;;;;0.70;0.50;;;12.40;99.90;;;;;;5010003;28;20033;-73
2023/06/09 04:57:43;;;;;;;1.98;0.60;;;12.60;99.90;;;;;;5013385;28;20080;-73
2023/06/09 05:00:16;;;;;;;0.10;0.10;;;12.90;99.90;;;;;;5012295;28;20056;-73
2023/06/09 05:02:44;;;;;;;0.17;0.17;;;13.30;99.90;;;;;;5011692;28;20037;-73
2023/06/09 05:05:12;;;;;;;0.25;0.22;;;13.60;99.90;;;;;;5007554;28;20101;-73
2023/06/09 05:07:39;;;;;;;0.20;0.15;;;13.80;99.90;;;;;;5012502;28;20053;-73
2023/06/09 05:10:08;;;;;;;20.48;0.82;;;13.80;99.90;;;;;;5011580;28;20054;-74
2023/06/09 05:12:34;;;;;;;0.00;0.00;;;13.70;99.90;;;;;;5008531;28;20397;-73
2023/06/09 05:15:00;;;;;;;0.32;0.10;;;13.80;99.90;;;;;;5008957;28;20053;-73
2023/06/09 05:17:26;;;;;;;1.83;1.15;;;13.70;99.90;;;;;;5010075;28;20041;-73
2023/06/09 05:19:52;;;;;;;0.00;0.00;;;13.70;99.90;;;;;;5010854;28;20385;-73
2023/06/09 05:22:18;;;;;;;0.63;0.30;;;13.70;99.90;;;;;;5011888;28;20037;-73
2023/06/09 05:24:43;;;;;;;1.90;0.85;;;13.70;99.90;;;;;;5011155;28;20126;-72
2023/06/09 05:27:10;;;;;;;1.63;1.17;;;13.80;99.90;;;;;;5005996;28;20115;-73
2023/06/09 05:29:37;;;;;;;0.00;0.00;;;13.80;99.90;;;;;;5010621;28;20455;-73
2023/06/09 05:32:03;;;;;;;0.52;0.38;;;13.90;99.90;;;;;;5011306;28;20064;-73
2023/06/09 05:34:30;;;;;;;1.90;1.05;;;14.00;99.90;;;;;;5007516;28;20507;-74
2023/06/09 05:36:56;;;;;;;4.65;1.25;;;14.00;99.90;;;;;;5011917;28;20435;-71
2023/06/09 05:39:22;;;;;;;0.50;0.32;;;14.00;99.90;;;;;;5011652;28;20156;-72
2023/06/09 05:41:48;;;;;;;0.88;0.30;;;14.20;99.90;;;;;;5008250;28;20041;-71
2023/06/09 05:44:14;;;;;;;0.43;0.35;;;14.20;99.90;;;;;;5011430;28;20072;-72
2023/06/09 05:46:40;;;;;;;0.28;0.25;;;14.30;99.90;;;;;;5007891;28;20136;-75
2023/06/09 05:49:06;;;;;;;1.40;1.02;;;14.30;99.90;;;;;;5010812;28;20073;-74
2023/06/09 05:51:36;;;;;;;0.35;0.35;;;14.30;99.90;;;;;;5011648;28;20052;-73
2023/06/09 05:54:03;;;;;;;1.00;0.50;;;14.40;99.90;;;;;;4992671;28;20120;-74
2023/06/09 05:56:29;;;;;;;7.05;0.40;;;14.60;99.90;;;;;;5008680;28;20102;-73
2023/06/09 05:59:03;;;;;;;0.17;0.13;;;14.70;99.90;;;;;;4992772;28;20052;-72
2023/06/09 06:01:30;;;;;;;1.40;0.33;;;14.70;99.90;;;;;;5005638;28;20042;-73
2023/06/09 06:03:56;;;;;;;0.82;0.63;;;14.90;99.90;;;;;;4991345;28;20076;-71
2023/06/09 06:06:21;;;;;;;1.60;0.63;;;15.00;99.90;;;;;;5004510;28;20519;-73
2023/06/09 06:08:47;;;;;;;0.10;0.10;;;15.10;99.90;;;;;;5005830;28;20060;-72
2023/06/09 06:11:13;;;;;;;0.22;0.05;;;15.20;99.90;;;;;;5006111;28;20142;-76
2023/06/09 06:13:39;;;;;;;4.90;0.73;;;15.40;99.90;;;;;;5022547;28;20123;-72
2023/06/09 06:16:04;;;;;;;2.72;0.20;;;15.40;99.90;;;;;;5011169;28;20037;-71
2023/06/09 06:18:30;;;;;;;0.20;0.20;;;15.50;99.90;;;;;;5009434;28;20136;-71
2023/06/09 06:20:56;;;;;;;9.15;0.47;;;15.60;99.90;;;;;;5008844;28;20124;-74
2023/06/09 06:23:21;;;;;;;0.57;0.47;;;15.70;99.90;;;;;;4992688;28;20045;-73
2023/06/09 06:25:47;;;;;;;0.28;0.20;;;15.80;99.90;;;;;;5006089;28;20481;-74
2023/06/09 06:28:14;;;;;;;0.85;0.45;;;15.90;99.90;;;;;;5010114;28;20041;-73
2023/06/09 06:30:40;;;;;;;0.65;0.65;;;16.00;99.90;;;;;;5006249;28;20077;-72
2023/06/09 06:33:07;;;;;;;0.32;0.20;;;16.20;99.90;;;;;;5009250;28;20046;-72
2023/06/09 06:35:33;;;;;;;0.25;0.20;;;16.30;99.90;;;;;;5010356;28;20042;-72
2023/06/09 06:37:59;;;;;;;4.03;0.32;;;16.40;99.90;;;;;;5008867;28;20107;-72
2023/06/09 06:40:25;;;;;;;0.40;0.40;;;16.50;99.90;;;;;;5012961;28;20041;-72
2023/06/09 06:42:51;;;;;;;0.10;0.10;;;16.70;99.90;;;;;;5014727;28;20460;-72
2023/06/09 06:45:17;;;;;;;0.50;0.50;;;16.80;99.90;;;;;;5014082;28;20049;-71
2023/06/09 06:47:45;;;;;;;0.35;0.28;;;16.90;99.90;;;;;;4997895;28;20067;-71
2023/06/09 06:50:12;;;;;;;0.10;0.03;;;17.10;99.90;;;;;;5013190;28;20042;-71
2023/06/09 06:52:38;;;;;;;0.13;0.13;;;17.20;99.90;;;;;;5012592;28;20037;-71
2023/06/09 06:55:07;;;;;;;0.38;0.38;;;17.30;99.90;;;;;;5013681;28;20346;-71
2023/06/09 06:57:34;;;;;;;0.00;0.00;;;17.40;99.90;;;;;;5012226;28;20041;-71
2023/06/09 07:00:00;;;;;;;0.20;0.10;;;17.60;99.90;;;;;;5013677;28;20073;-71
2023/06/09 07:02:26;;;;;;;1.30;0.70;;;17.70;99.90;;;;;;5010576;28;20052;-72
2023/06/09 07:04:52;;;;;;;0.25;0.25;;;17.80;99.90;;;;;;5009572;28;20505;-73
2023/06/09 07:07:17;;;;;;;0.03;0.03;;;17.90;99.90;;;;;;5009747;28;20099;-73
2023/06/09 07:09:43;;;;;;;3.90;1.60;;;18.00;99.90;;;;;;5012517;28;20108;-72
2023/06/09 07:12:09;;;;;;;0.60;0.30;;;18.20;99.90;;;;;;5011583;28;20041;-72
2023/06/09 07:14:35;;;;;;;0.20;0.20;;;18.30;99.90;;;;;;5011355;28;20048;-71
2023/06/09 07:17:01;;;;;;;0.75;0.22;;;18.50;99.90;;;;;;5013322;28;20049;-71
2023/06/09 07:19:27;;;;;;;0.35;0.30;;;18.60;99.90;;;;;;5012867;28;20508;-71
2023/06/09 07:21:53;;;;;;;0.28;0.15;;;18.70;99.90;;;;;;5009351;28;20378;-72
2023/06/09 07:24:19;;;;;;;0.75;0.30;;;18.80;99.90;;;;;;5011868;28;20675;-71
2023/06/09 07:26:45;;;;;;;0.47;0.35;;;18.90;99.90;;;;;;5011029;28;20046;-71
2023/06/09 07:29:11;;;;;;;0.28;0.20;;;19.00;99.90;;;;;;5013399;28;20055;-71
2023/06/09 07:31:37;;;;;;;0.20;0.20;;;19.20;99.90;;;;;;5010730;28;20731;-74
2023/06/09 07:34:02;;;;;;;0.10;0.10;;;19.40;99.90;;;;;;4997460;28;20041;-71
2023/06/09 07:36:29;;;;;;;0.20;0.20;;;19.50;99.90;;;;;;5012308;28;20063;-70
2023/06/09 07:38:55;;;;;;;0.10;0.00;;;19.60;99.90;;;;;;5012986;28;20044;-70
2023/06/09 07:41:21;;;;;;;0.60;0.50;;;19.60;99.90;;;;;;5010517;28;20517;-71
2023/06/09 07:43:47;;;;;;;0.45;0.35;;;19.70;99.90;;;;;;5010797;28;20116;-71
2023/06/09 07:46:14;;;;;;;0.45;0.38;;;19.80;99.90;;;;;;5011834;28;20471;-71
2023/06/09 07:48:42;;;;;;;0.10;0.10;;;19.90;99.90;;;;;;5010907;28;20061;-71
2023/06/09 07:51:09;;;;;;;0.68;0.43;;;20.00;99.90;;;;;;5027495;28;20037;-71
2023/06/09 07:53:36;;;;;;;2.97;0.93;;;20.10;99.90;;;;;;5010618;28;20034;-71
2023/06/09 07:56:02;;;;;;;0.10;0.10;;;20.20;99.90;;;;;;5008673;28;20040;-71
2023/06/09 07:58:28;;;;;;;0.98;0.17;;;20.30;99.90;;;;;;5013545;28;20041;-71
2023/06/09 08:00:54;;;;;;;0.75;0.25;;;20.40;99.90;;;;;;5013328;28;20037;-71
2023/06/09 08:03:22;;;;;;;0.10;0.00;;;20.60;99.90;;;;;;5009493;28;20409;-72
2023/06/09 08:05:47;;;;;;;0.45;0.08;;;20.60;99.90;;;;;;5006924;28;20053;-73
2023/06/09 08:08:13;;;;;;;0.20;0.13;;;20.60;99.90;;;;;;5012905;28;20052;-72
2023/06/09 08:10:39;;;;;;;0.25;0.20;;;20.80;99.90;;;;;;5012906;28;20045;-72
2023/06/09 08:13:05;;;;;;;1.45;0.77;;;21.00;99.90;;;;;;5013208;28;20549;-73
2023/06/09 08:15:30;;;;;;;0.28;0.20;;;21.10;99.90;;;;;;5012187;28;20038;-73
2023/06/09 08:17:56;;;;;;;0.45;0.30;;;21.30;99.90;;;;;;5012593;28;20052;-72
2023/06/09 08:20:22;;;;;;;0.40;0.20;;;21.40;99.90;;;;;;5012615;28;20140;-73
2023/06/09 08:22:47;;;;;;;1.25;0.50;;;21.50;99.90;;;;;;4993731;28;20195;-73
2023/06/09 08:25:13;;;;;;;0.43;0.30;;;21.60;99.90;;;;;;5010490;28;20142;-73
2023/06/09 08:27:39;;;;;;;1.27;0.52;;;21.70;99.90;;;;;;5013304;28;20041;-73
2023/06/09 08:30:07;;;;;;;0.25;0.13;;;21.80;99.90;;;;;;5011552;28;20544;-73
2023/06/09 08:32:33;;;;;;;0.77;0.63;;;22.00;99.90;;;;;;5012721;28;20048;-72
2023/06/09 08:35:05;;;;;;;0.32;0.20;;;22.10;99.90;;;;;;5012313;28;20038;-72
2023/06/09 08:37:32;;;;;;;2.72;0.90;;;22.20;99.90;;;;;;5012061;28;20390;-74
2023/06/09 08:40:00;;;;;;;0.93;0.20;;;22.40;99.90;;;;;;5012973;28;20042;-71
2023/06/09 08:42:30;;;;;;;0.57;0.40;;;22.50;99.90;;;;;;5007407;28;20071;-73
2023/06/09 08:45:01;;;;;;;2.92;0.73;;;22.60;99.90;;;;;;5030656;28;20459;-72
2023/06/09 08:47:28;;;;;;;0.85;0.30;;;22.70;99.90;;;;;;5011394;28;20498;-72
2023/06/09 08:49:57;;;;;;;0.95;0.30;;;22.80;99.90;;;;;;4995513;28;20037;-73
2023/06/09 08:52:28;;;;;;;0.73;0.20;;;23.00;99.90;;;;;;5011177;28;20049;-73
2023/06/09 08:54:55;;;;;;;0.52;0.45;;;23.10;99.90;;;;;;5011507;28;20049;-73
2023/06/09 08:57:22;;;;;;;0.50;0.40;;;23.20;99.90;;;;;;5011912;28;20091;-72
2023/06/09 08:59:48;;;;;;;0.30;0.30;;;23.40;99.90;;;;;;5012118;28;20077;-72
2023/06/09 09:02:14;;;;;;;1.13;0.35;;;23.30;99.90;;;;;;5005658;28;20037;-73
2023/06/09 09:04:40;;;;;;;0.68;0.45;;;23.50;99.90;;;;;;5011814;28;20041;-72
2023/06/09 09:07:07;;;;;;;0.32;0.22;;;23.60;99.90;;;;;;5010902;28;20045;-73
2023/06/09 09:09:33;;;;;;;0.20;0.10;;;23.80;99.90;;;;;;5012414;28;20041;-74
2023/06/09 09:11:59;;;;;;;0.38;0.30;;;24.10;99.90;;;;;;5009389;28;20112;-73
2023/06/09 09:14:25;;;;;;;0.80;0.25;;;24.10;99.90;;;;;;5012574;28;20052;-73
2023/06/09 09:16:51;;;;;;;1.05;0.40;;;24.40;99.90;;;;;;5004053;28;20033;-72
2023/06/09 09:19:28;;;;;;;0.52;0.52;;;24.50;98.50;;;;;;4995331;28;20042;-72
2023/06/09 09:22:01;;;;;;;0.88;0.40;;;24.80;98.30;;;;;;5008410;28;20049;-72
2023/06/09 09:24:30;;;;;;;0.43;0.37;;;25.00;97.10;;;;;;5010279;28;20041;-72
2023/06/09 09:26:56;;;;;;;0.20;0.10;;;25.20;98.90;;;;;;5009301;28;20045;-73
2023/06/09 09:29:26;;;;;;;0.22;0.10;;;25.50;97.80;;;;;;5028674;28;20034;-74
2023/06/09 09:31:58;;;;;;;1.02;0.47;;;25.60;95.90;;;;;;5012113;28;20041;-74
2023/06/09 09:34:25;;;;;;;0.03;0.03;;;25.60;94.10;;;;;;5010833;28;20146;-73
2023/06/09 09:36:57;;;;;;;4.38;0.43;;;25.60;95.00;;;;;;5011001;28;20350;-74
2023/06/09 09:39:24;;;;;;;0.38;0.25;;;25.80;95.30;;;;;;5011766;28;20045;-74
2023/06/09 09:42:07;;;;;;;0.10;0.10;;;25.90;94.10;;;;;;5010423;28;20122;-75
2023/06/09 09:44:50;;;;;;;1.85;0.70;;;26.00;92.00;;;;;;5003531;28;20126;-74
2023/06/09 09:47:17;;;;;;;1.55;0.20;;;26.00;91.10;;;;;;4994170;28;20116;-74
2023/06/09 09:49:51;;;;;;;0.95;0.35;;;26.10;92.60;;;;;;5009658;28;20080;-76
2023/06/09 09:52:29;;;;;;;1.17;0.45;;;26.30;93.00;;;;;;5007452;28;20088;-77
2023/06/09 09:54:58;;;;;;;0.77;0.43;;;26.30;89.70;;;;;;4994993;28;20493;-74
2023/06/09 09:57:28;;;;;;;0.88;0.40;;;26.40;89.70;;;;;;4995423;28;20099;-74
2023/06/09 09:59:56;;;;;;;1.08;0.50;;;26.60;90.30;;;;;;5007144;28;20054;-75
2023/06/09 10:02:24;;;;;;;0.75;0.35;;;26.70;88.30;;;;;;5009374;28;20468;-74
2023/06/09 10:04:51;;;;;;;0.10;0.10;;;26.90;89.10;;;;;;5007672;28;20129;-75
2023/06/09 10:07:23;;;;;;;6.82;0.60;;;27.10;87.10;;;;;;5011308;28;20057;-78
2023/06/09 10:09:54;;;;;;;1.27;0.53;;;27.20;83.70;;;;;;5005974;28;20041;-74
2023/06/09 10:12:20;;;;;;;1.58;0.60;;;27.20;82.60;;;;;;5008756;28;20295;-75
2023/06/09 10:14:50;;;;;;;0.52;0.40;;;27.30;83.00;;;;;;5007840;28;20046;-75
2023/06/09 10:17:22;;;;;;;0.20;0.10;;;27.30;81.50;;;;;;4993907;28;20064;-76
2023/06/09 10:19:51;;;;;;;0.77;0.20;;;27.40;78.80;;;;;;5001819;28;20048;-76
2023/06/09 10:22:18;;;;;;;0.17;0.10;;;27.50;78.70;;;;;;5011012;28;20091;-76
2023/06/09 10:24:46;;;;;;;0.05;0.00;;;27.70;78.80;;;;;;5003849;28;20041;-77
2023/06/09 10:27:13;;;;;;;0.50;0.30;;;28.00;78.50;;;;;;5008679;28;20512;-75
2023/06/09 10:29:40;;;;;;;0.43;0.43;;;28.10;72.80;;;;;;5011374;28;20385;-80
2023/06/09 10:32:09;;;;;;;0.88;0.40;;;28.00;72.40;;;;;;5026149;28;20041;-76
2023/06/09 10:34:37;;;;;;;0.60;0.43;;;28.10;75.90;;;;;;5009999;28;20047;-76
2023/06/09 10:37:04;;;;;;;0.40;0.30;;;28.50;75.50;;;;;;5010356;28;20045;-76
2023/06/09 10:39:48;;;;;;;1.15;0.38;;;28.70;70.90;;;;;;5010195;28;20045;-79
2023/06/09 10:42:38;;;;;;;0.10;0.10;;;28.70;70.20;;;;;;5026988;28;20608;-77
2023/06/09 10:45:14;;;;;;;0.30;0.17;;;28.30;68.10;;;;;;5010457;28;20041;-80
2023/06/09 10:47:44;;;;;;;0.52;0.30;;;28.50;67.00;;;;;;5007436;28;20124;-80
2023/06/09 10:50:30;;;;;;;2.22;0.40;;;28.70;67.80;;;;;;4992503;28;20077;-82
2023/06/09 10:52:57;;;;;;;0.47;0.20;;;28.90;65.70;;;;;;5011458;28;20064;-78
2023/06/09 10:55:28;;;;;;;0.70;0.30;;;28.90;64.50;;;;;;5008312;28;20334;-77
2023/06/09 10:57:55;;;;;;;0.13;0.05;;;28.80;63.40;;;;;;5011262;28;20049;-79
2023/06/09 11:00:22;;;;;;;0.50;0.30;;;28.80;64.40;;;;;;5010477;28;20042;-80
2023/06/09 11:03:14;;;;;;;0.43;0.43;;;28.80;63.80;;;;;;5011817;28;20579;-78
2023/06/09 11:05:57;;;;;;;0.45;0.15;;;28.80;62.50;;;;;;4994496;28;20049;-80
2023/06/09 11:08:23;;;;;;;0.25;0.17;;;29.00;62.90;;;;;;5007163;28;20470;-79
2023/06/09 11:10:48;;;;;;;2.15;0.20;;;29.10;63.40;;;;;;5009495;28;20037;-79
2023/06/09 11:13:40;;;;;;;0.63;0.17;;;29.10;58.20;;;;;;5010724;28;20046;-77
2023/06/09 11:16:07;;;;;;;0.32;0.32;;;28.80;60.40;;;;;;5009298;28;20033;-79
2023/06/09 11:18:32;;;;;;;0.63;0.20;;;28.90;61.10;;;;;;5005958;28;20042;-79
2023/06/09 11:21:15;;;;;;;0.10;0.10;;;29.20;61.00;;;;;;5010763;28;20171;-80
2023/06/09 11:23:55;;;;;;;0.30;0.20;;;29.40;60.10;;;;;;4993511;28;20029;-80
2023/06/09 11:26:22;;;;;;;0.82;0.30;;;29.40;59.00;;;;;;5013097;28;20048;-81
2023/06/09 11:28:48;;;;;;;0.80;0.20;;;29.70;60.70;;;;;;5011479;28;20041;-79
2023/06/09 11:31:15;;;;;;;0.63;0.20;;;29.80;57.90;;;;;;5012764;28;20065;-80
2023/06/09 11:33:45;;;;;;;0.32;0.30;;;30.00;58.70;;;;;;5010724;28;20053;-80
2023/06/09 11:36:17;;;;;;;0.17;0.10;;;29.70;57.00;;;;;;4987695;28;20041;-80
2023/06/09 11:38:43;;;;;;;1.15;0.47;;;29.50;55.60;;;;;;4996114;28;20088;-73
2023/06/09 11:41:12;;;;;;;3.55;0.77;;;29.60;56.60;;;;;;5009317;28;20045;-77
2023/06/09 11:43:38;;;;;;;0.20;0.20;;;29.50;57.10;;;;;;4997657;28;20037;-79
2023/06/09 11:46:04;;;;;;;0.20;0.10;;;29.60;56.20;;;;;;5014727;28;20095;-80
2023/06/09 11:48:30;;;;;;;0.35;0.20;;;29.20;55.80;;;;;;4996622;28;20088;-79
2023/06/09 11:50:56;;;;;;;0.10;0.00;;;29.10;56.30;;;;;;5013819;28;20047;-78
2023/06/09 11:53:25;;;;;;;0.22;0.15;;;29.40;57.10;;;;;;5011294;28;20041;-82
2023/06/09 11:56:00;;;;;;;0.47;0.30;;;29.70;57.40;;;;;;5012001;28;20049;-79
2023/06/09 11:58:26;;;;;;;0.35;0.20;;;29.70;54.30;;;;;;5013535;28;20045;-79
2023/06/09 12:00:53;;;;;;;5.35;0.60;;;29.60;55.30;;;;;;5010754;28;20041;-80
2023/06/09 12:03:19;;;;;;;0.20;0.10;;;29.90;56.60;;;;;;5025850;28;20359;-79
2023/06/09 12:05:52;;;;;;;0.28;0.10;;;30.30;57.50;;;;;;5011681;28;20041;-80
2023/06/09 12:08:18;;;;;;;0.17;0.10;;;30.50;56.20;;;;;;4997131;28;20045;-80
2023/06/09 12:10:44;;;;;;;0.15;0.10;;;30.70;55.00;;;;;;5012282;28;20092;-76
2023/06/09 12:13:10;;;;;;;0.43;0.30;;;30.80;55.00;;;;;;5010290;28;20038;-77
2023/06/09 12:15:35;;;;;;;0.25;0.25;;;30.90;54.00;;;;;;5007514;28;20050;-80
2023/06/09 12:18:02;;;;;;;0.28;0.20;;;30.80;53.90;;;;;;5010434;28;20033;-78
2023/06/09 12:20:30;;;;;;;1.20;0.52;;;30.80;54.00;;;;;;5010462;28;20049;-76
2023/06/09 12:23:13;;;;;;;0.20;0.20;;;30.60;51.60;;;;;;5010570;28;20071;-72
2023/06/09 12:25:43;;;;;;;0.65;0.40;;;30.30;52.40;;;;;;5008707;28;20468;-72
2023/06/09 12:28:17;;;;;;;0.30;0.10;;;30.10;53.20;;;;;;5026990;28;20461;-73
2023/06/09 12:30:48;;;;;;;0.73;0.45;;;29.90;53.00;;;;;;5010490;28;20037;-79
2023/06/09 12:33:33;;;;;;;0.17;0.10;;;30.00;51.90;;;;;;5008221;28;20688;-82
2023/06/09 12:36:10;;;;;;;0.35;0.20;;;30.00;51.50;;;;;;5011885;28;20045;-83
2023/06/09 12:38:45;;;;;;;0.43;0.20;;;30.10;51.90;;;;;;5013313;28;20052;-83
2023/06/09 12:41:13;;;;;;;1.45;0.52;;;30.20;52.70;;;;;;5013836;28;20469;-82
2023/06/09 12:43:55;;;;;;;0.00;0.00;;;30.10;52.80;;;;;;5010129;28;20111;-82
2023/06/09 12:46:35;;;;;;;0.20;0.17;;;30.20;54.00;;;;;;5027084;28;20041;-79
2023/06/09 12:49:06;;;;;;;0.35;0.17;;;30.20;50.60;;;;;;5011579;28;20492;-78
2023/06/09 12:51:33;;;;;;;1.10;0.68;;;30.10;50.30;;;;;;4997447;28;20397;-83
2023/06/09 12:53:59;;;;;;;0.15;0.05;;;30.10;51.30;;;;;;5011402;28;20390;-79